createdAt,value
2022-08-26T00:04:48.545Z,-15262.09
2022-08-26T00:09:54.522Z,-15262.09
2022-08-26T00:15:00.727Z,-15262.09
2022-08-26T00:20:04.759Z,-15262.09
2022-08-26T00:25:10.304Z,-15262.09
2022-08-26T00:30:22.898Z,-15262.09
2022-08-26T00:35:29.115Z,-15262.09
2022-08-26T00:40:36.878Z,-15262.09
2022-08-26T00:45:48.098Z,-15262.09
2022-08-26T00:50:56.105Z,-15262.09
2022-08-26T00:56:03.078Z,-15262.09
2022-08-26T01:01:08.003Z,-15262.09
2022-08-26T01:06:13.090Z,-15262.09
2022-08-26T01:11:17.183Z,-15262.09
2022-08-26T01:16:24.884Z,-15262.09
2022-08-26T01:21:34.086Z,-15262.09
2022-08-26T01:26:41.508Z,-15262.09
2022-08-26T01:31:48.252Z,-15262.09
2022-08-26T01:36:56.238Z,-15262.09
2022-08-26T01:42:03.118Z,-15262.09
2022-08-26T01:47:08.030Z,-15262.09
2022-08-26T01:52:16.756Z,-15262.09
2022-08-26T01:57:22.970Z,-15262.09
2022-08-26T02:02:27.655Z,-15262.09
2022-08-26T02:07:33.258Z,-15262.09
2022-08-26T02:12:39.100Z,-15262.09
2022-08-26T02:17:45.922Z,-15262.09
2022-08-26T02:22:50.127Z,-15262.09
2022-08-26T02:27:56.758Z,-15262.09
2022-08-26T02:33:03.685Z,-15262.09
2022-08-26T02:38:10.992Z,-15262.09
2022-08-26T02:43:16.992Z,-15262.09
2022-08-26T02:48:22.695Z,-15262.09
2022-08-26T02:53:28.011Z,-15262.09
2022-08-26T02:58:37.018Z,-15262.09
2022-08-26T03:03:41.435Z,-15262.09
2022-08-26T03:08:45.438Z,-15262.09
2022-08-26T03:13:51.162Z,-15262.09
2022-08-26T03:18:55.280Z,-15262.09
2022-08-26T03:23:58.925Z,-15262.09
2022-08-26T03:29:23.093Z,-15262.09
2022-08-26T03:34:26.579Z,-15262.09
2022-08-26T03:39:32.631Z,-15262.09
2022-08-26T03:44:41.978Z,-15262.09
2022-08-26T03:49:45.900Z,-15262.09
2022-08-26T03:54:49.887Z,-15262.09
2022-08-26T03:59:54.775Z,-15262.09
2022-08-26T04:04:58.495Z,-15262.09
2022-08-26T04:10:02.167Z,-15262.09
2022-08-26T04:15:10.308Z,-15262.09
2022-08-26T04:20:16.115Z,-15262.09
2022-08-26T04:25:20.607Z,-15262.09
2022-08-26T04:30:25.584Z,-15262.09
2022-08-26T04:35:29.072Z,-15262.09
2022-08-26T04:40:33.218Z,-15262.09
2022-08-26T04:45:39.456Z,-15262.09
2022-08-26T04:50:43.196Z,-15262.09
2022-08-26T04:55:48.411Z,-15262.09
2022-08-26T05:00:56.387Z,-15262.09
2022-08-26T05:06:00.050Z,-15262.09
2022-08-26T05:11:05.992Z,-15262.09
2022-08-26T05:16:13.377Z,-15262.09
2022-08-26T05:21:18.947Z,-15262.09
2022-08-26T05:26:24.838Z,-15262.09
2022-08-26T05:31:32.643Z,-15262.09
2022-08-26T05:36:37.926Z,-15262.09
2022-08-26T05:41:44.822Z,-15262.09
2022-08-26T05:46:51.309Z,-15262.09
2022-08-26T05:51:55.007Z,-15262.09
2022-08-26T05:56:58.500Z,-15262.09
2022-08-26T06:02:04.456Z,-15262.09
2022-08-26T06:07:09.898Z,-15262.09
2022-08-26T06:12:15.788Z,-15262.09
2022-08-26T06:17:23.506Z,-15262.09
2022-08-26T06:22:45.942Z,-15262.09
2022-08-26T06:27:49.264Z,-15262.09
2022-08-26T06:32:54.096Z,-15262.09
2022-08-26T06:37:58.328Z,-15262.09
2022-08-26T06:43:01.893Z,-15262.09
2022-08-26T06:48:07.642Z,-15262.09
2022-08-26T06:53:12.859Z,-15262.09
2022-08-26T06:58:16.560Z,-15262.09
2022-08-26T07:03:22.295Z,-15262.09
2022-08-26T07:08:25.813Z,-15262.09
2022-08-26T07:13:30.762Z,-15262.09
2022-08-26T07:18:37.589Z,-15262.09
2022-08-26T07:23:42.976Z,-15262.09
2022-08-26T07:28:48.848Z,-15262.09
2022-08-26T07:33:54.938Z,-15262.09
2022-08-26T07:38:59.214Z,-15262.09
2022-08-26T07:44:03.024Z,-15262.09
2022-08-26T07:49:09.530Z,-15262.09
2022-08-26T07:54:13.100Z,-15262.09
2022-08-26T07:59:17.075Z,-15262.09
2022-08-26T08:04:26.417Z,-15262.09
2022-08-26T08:09:30.246Z,-15262.09
2022-08-26T08:14:34.800Z,-15262.09
2022-08-26T08:19:40.087Z,-15262.09
2022-08-26T08:24:43.884Z,-15262.09
2022-08-26T08:29:47.990Z,-15262.09
2022-08-26T08:34:53.846Z,-15262.09
2022-08-26T08:39:58.077Z,-15262.09
2022-08-26T08:45:06.396Z,-15262.09
2022-08-26T08:50:21.290Z,-15262.09
2022-08-26T08:55:30.786Z,-15262.09
2022-08-26T09:00:43.950Z,-15262.09
2022-08-26T09:05:52.582Z,-15262.09
2022-08-26T09:11:00.708Z,-15262.09
2022-08-26T09:16:08.432Z,-15262.09
2022-08-26T09:21:17.787Z,-15262.09
2022-08-26T09:26:29.367Z,-15262.09
2022-08-26T09:31:36.185Z,-15262.09
2022-08-26T09:36:43.996Z,-15262.09
2022-08-26T09:42:04.781Z,-15262.09
2022-08-26T09:47:09.764Z,-15262.09
2022-08-26T09:52:24.638Z,-15262.09
2022-08-26T09:57:35.575Z,-15262.09
2022-08-26T10:02:41.690Z,-15262.09
2022-08-26T10:07:53.326Z,-15262.09
2022-08-26T10:13:05.133Z,-15262.09
2022-08-26T10:18:16.291Z,-15262.09
2022-08-26T10:23:25.412Z,-15262.09
2022-08-26T10:28:36.655Z,-15262.09
2022-08-26T10:33:40.769Z,-15262.09
2022-08-26T10:38:45.846Z,-15262.09
2022-08-26T10:43:53.635Z,-15262.09
2022-08-26T10:49:06.692Z,-15262.09
2022-08-26T10:54:18.218Z,-15262.09
2022-08-26T10:59:32.247Z,-15262.09
2022-08-26T11:04:48.231Z,-15262.09
2022-08-26T11:09:53.596Z,-15262.09
2022-08-26T11:14:58.722Z,-15262.09
2022-08-26T11:20:09.232Z,-15262.09
2022-08-26T11:25:19.405Z,-15262.09
2022-08-26T11:30:45.326Z,-15262.09
2022-08-26T11:35:52.276Z,-15262.09
2022-08-26T11:41:09.295Z,-15262.09
2022-08-26T11:46:14.295Z,-15262.09
2022-08-26T11:51:24.261Z,-15262.09
2022-08-26T11:56:33.807Z,-15262.09
2022-08-26T12:01:40.024Z,-15262.09
2022-08-26T12:06:48.922Z,-15262.09
2022-08-26T12:12:12.163Z,-15262.09
2022-08-26T12:17:18.226Z,-15262.09
2022-08-26T12:22:26.790Z,-15262.09
2022-08-26T12:27:33.985Z,-15262.09
2022-08-26T12:32:51.003Z,-15262.09
2022-08-26T12:38:02.967Z,-15262.09
2022-08-26T12:43:09.337Z,-15262.09
2022-08-26T12:48:27.067Z,-15262.09
2022-08-26T12:53:32.950Z,-15262.09
2022-08-26T12:58:39.833Z,-15262.09
2022-08-26T13:03:46.037Z,-15262.09
2022-08-26T13:08:51.553Z,-15262.09
2022-08-26T13:13:59.551Z,-15262.09
2022-08-26T13:19:05.777Z,-15262.09
2022-08-26T13:24:16.853Z,-15262.09
2022-08-26T13:29:22.217Z,-15262.09
2022-08-26T13:34:26.238Z,-15262.09
2022-08-26T13:39:30.474Z,-15262.09
2022-08-26T13:44:38.888Z,-15262.09
2022-08-26T13:49:43.980Z,-15262.09
2022-08-26T13:54:47.664Z,-15262.09
2022-08-26T13:59:54.119Z,-15262.09
2022-08-26T14:04:57.854Z,-15262.09
2022-08-26T14:10:01.564Z,-15262.09
2022-08-26T14:15:07.529Z,-15262.09
2022-08-26T14:20:14.922Z,-15262.09
2022-08-26T14:25:19.101Z,-15262.09
2022-08-26T14:30:24.353Z,-15262.09
2022-08-26T14:35:30.790Z,-15262.09
2022-08-26T14:40:37.748Z,-15262.09
2022-08-26T14:45:46.155Z,-15262.09
2022-08-26T14:50:50.132Z,-15262.09
2022-08-26T14:55:54.122Z,-15262.09
2022-08-26T15:00:59.618Z,-15262.09
2022-08-26T15:06:09.117Z,-15262.09
2022-08-26T15:11:13.066Z,-15262.09
2022-08-26T15:16:18.360Z,-15262.09
2022-08-26T15:21:22.686Z,-15262.09
2022-08-26T15:26:27.860Z,-15262.09
2022-08-26T15:31:33.740Z,-15262.09
2022-08-26T15:36:38.620Z,-15262.09
2022-08-26T15:41:42.146Z,-15262.09
2022-08-26T15:46:48.729Z,-15262.09
2022-08-26T15:51:52.448Z,-15262.09
2022-08-26T15:56:56.118Z,-15262.09
2022-08-26T16:02:02.073Z,-15262.09
2022-08-26T16:07:05.768Z,-15262.09
2022-08-26T16:12:09.693Z,-15262.09
2022-08-26T16:17:14.644Z,-15262.09
2022-08-26T16:22:18.263Z,-15262.09
2022-08-26T16:27:23.174Z,-15262.09
2022-08-26T16:32:31.165Z,-15262.09
2022-08-26T16:37:37.677Z,-15262.09
2022-08-26T16:42:43.012Z,-15260.56
2022-08-26T16:47:48.542Z,-15260.56
2022-08-26T16:52:55.587Z,-15260.56
2022-08-26T16:57:59.611Z,-15260.56
2022-08-26T17:03:05.294Z,-15260.56
2022-08-26T17:08:09.127Z,-15260.56
2022-08-26T17:13:12.805Z,-15262.09
2022-08-26T17:18:31.295Z,-15262.09
2022-08-26T17:23:35.214Z,-15262.09
2022-08-26T17:28:39.292Z,-15262.09
2022-08-26T17:33:47.634Z,-15262.09
2022-08-26T17:38:54.284Z,-15262.09
2022-08-26T17:43:58.149Z,-15262.09
2022-08-26T17:49:03.143Z,-15262.09
2022-08-26T17:54:07.007Z,-15262.09
2022-08-26T17:59:10.562Z,-15262.09
2022-08-26T18:04:15.830Z,-15262.09
2022-08-26T18:09:19.515Z,-15262.09
2022-08-26T18:14:23.221Z,-15262.09
2022-08-26T18:19:29.655Z,-15262.09
2022-08-26T18:24:34.799Z,-15262.09
2022-08-26T18:29:45.326Z,-15262.09
2022-08-26T18:34:50.460Z,-15262.09
2022-08-26T18:39:54.096Z,-15262.09
2022-08-26T18:44:57.836Z,-15262.09
2022-08-26T18:50:03.661Z,-15262.09
2022-08-26T18:55:07.610Z,-15262.09
2022-08-26T19:00:12.475Z,-15262.09
2022-08-26T19:05:17.616Z,-15262.09
2022-08-26T19:10:21.084Z,-15262.09
2022-08-26T19:15:24.699Z,-15262.09
2022-08-26T19:20:29.667Z,-15262.09
2022-08-26T19:25:33.244Z,-15262.09
2022-08-26T19:30:39.685Z,-15262.09
2022-08-26T19:35:44.700Z,-15262.09
2022-08-26T19:40:48.829Z,-15262.09
2022-08-26T19:45:52.600Z,-15262.09
2022-08-26T19:50:57.584Z,-15262.09
2022-08-26T19:56:01.249Z,-15262.09
2022-08-26T20:01:05.514Z,-15262.09
2022-08-26T20:06:13.249Z,-15260.56
2022-08-26T20:11:18.848Z,-15260.56
2022-08-26T20:16:22.533Z,-15002.19
2022-08-26T20:21:28.165Z,-14743.78
2022-08-26T20:26:34.748Z,-14485.34
2022-08-26T20:31:39.203Z,-14743.78
2022-08-26T20:36:44.781Z,-14485.34
2022-08-26T20:41:48.624Z,-14485.34
2022-08-26T20:46:52.324Z,-14226.91
2022-08-26T20:51:57.175Z,-14226.91
2022-08-26T20:57:00.680Z,-13968.47
2022-08-26T21:02:04.271Z,-13968.47
2022-08-26T21:07:09.162Z,-13192.97
2022-08-26T21:12:12.732Z,-13192.97
2022-08-26T21:17:16.454Z,-12158.78
2022-08-26T21:22:21.549Z,-11124.28
2022-08-26T21:27:26.563Z,-10089.50
2022-08-26T21:32:32.173Z,-9054.47
2022-08-26T21:37:37.042Z,-8019.13
2022-08-26T21:42:40.563Z,-5947.63
2022-08-26T21:47:44.405Z,-5429.56
2022-08-26T21:52:49.327Z,-3356.69
2022-08-26T21:57:52.976Z,-3097.47
2022-08-26T22:02:58.453Z,-1801.28
2022-08-26T22:08:03.460Z,-3356.69
2022-08-26T22:13:07.452Z,-2838.28
2022-08-26T22:18:11.154Z,-2838.28
2022-08-26T22:23:16.188Z,-2838.28
2022-08-26T22:28:20.668Z,-1801.28
2022-08-26T22:33:24.720Z,-3097.47
2022-08-26T22:38:29.699Z,-4911.44
2022-08-26T22:43:33.211Z,-6465.59
2022-08-26T22:48:38.091Z,-8536.81
2022-08-26T22:53:43.150Z,-9313.25
2022-08-26T22:58:46.722Z,-9313.25
2022-08-26T23:03:50.732Z,-9830.78
2022-08-26T23:08:55.671Z,-10865.63
2022-08-26T23:14:00.450Z,-11382.94
2022-08-26T23:19:06.372Z,-11641.56
2022-08-26T23:24:12.344Z,-12417.34
2022-08-26T23:29:16.491Z,-13192.97
2022-08-26T23:34:37.247Z,-13451.50
2022-08-26T23:39:42.313Z,-13968.47
2022-08-26T23:44:46.013Z,-14485.34
2022-08-26T23:49:49.558Z,-15002.19
2022-08-26T23:54:55.079Z,-15002.19
2022-08-26T23:59:58.713Z,-15002.19
